createdAt,value
2023-05-13T00:02:08.462Z,16.03
2023-05-13T00:05:11.000Z,17.52
2023-05-13T00:08:13.184Z,21.10
2023-05-13T00:11:15.352Z,20.67
2023-05-13T00:14:18.103Z,12.23
2023-05-13T00:17:20.069Z,13.57
2023-05-13T00:20:22.411Z,23.47
2023-05-13T00:23:24.958Z,12.77
2023-05-13T00:26:27.183Z,15.13
2023-05-13T00:29:29.239Z,14.70
2023-05-13T00:32:31.810Z,12.60
2023-05-13T00:35:33.899Z,11.67
2023-05-13T00:38:37.934Z,10.93
2023-05-13T00:41:40.197Z,16.15
2023-05-13T00:44:42.381Z,19.60
2023-05-13T00:47:45.063Z,22.07
2023-05-13T00:50:48.696Z,11.73
2023-05-13T00:53:52.715Z,11.87
2023-05-13T00:56:56.971Z,16.63
2023-05-13T00:59:59.298Z,9.82
2023-05-13T01:03:17.386Z,16.13
2023-05-13T01:06:33.404Z,12.23
2023-05-13T01:09:53.382Z,23.07
2023-05-13T01:13:00.364Z,14.30
2023-05-13T01:16:25.853Z,22.13
2023-05-13T01:19:44.308Z,17.00
2023-05-13T01:22:46.764Z,23.07
2023-05-13T01:25:50.569Z,14.90
2023-05-13T01:28:53.032Z,16.53
2023-05-13T01:31:57.672Z,25.07
2023-05-13T01:35:01.050Z,20.20
2023-05-13T01:38:05.386Z,15.48
2023-05-13T01:41:07.692Z,24.38
2023-05-13T01:44:09.852Z,18.07
2023-05-13T01:47:12.284Z,10.20
2023-05-13T01:50:14.315Z,15.77
2023-05-13T01:53:16.311Z,21.30
2023-05-13T01:56:18.553Z,19.97
2023-05-13T01:59:20.748Z,11.07
2023-05-13T02:02:22.905Z,16.87
2023-05-13T02:05:25.513Z,19.87
2023-05-13T02:08:27.898Z,16.90
2023-05-13T02:11:30.031Z,13.17
2023-05-13T02:14:32.255Z,19.47
2023-05-13T02:17:34.408Z,21.27
2023-05-13T02:20:36.468Z,11.90
2023-05-13T02:23:38.716Z,16.93
2023-05-13T02:26:41.846Z,12.87
2023-05-13T02:29:43.986Z,13.33
2023-05-13T02:32:46.474Z,14.10
2023-05-13T02:35:48.725Z,12.83
2023-05-13T02:38:50.728Z,17.37
2023-05-13T02:41:53.002Z,13.33
2023-05-13T02:44:55.284Z,21.77
2023-05-13T02:47:57.663Z,19.07
2023-05-13T02:50:59.726Z,7.37
2023-05-13T02:54:01.976Z,12.27
2023-05-13T02:57:04.271Z,13.00
2023-05-13T03:00:07.582Z,19.27
2023-05-13T03:03:09.706Z,11.53
2023-05-13T03:06:12.412Z,11.30
2023-05-13T03:09:14.454Z,16.33
2023-05-13T03:12:16.681Z,16.67
2023-05-13T03:15:19.055Z,12.97
2023-05-13T03:18:21.177Z,14.30
2023-05-13T03:21:23.356Z,19.33
2023-05-13T03:24:25.581Z,15.87
2023-05-13T03:27:27.618Z,15.40
2023-05-13T03:30:29.966Z,19.20
2023-05-13T03:33:32.007Z,11.47
2023-05-13T03:36:34.071Z,14.43
2023-05-13T03:39:36.548Z,11.20
2023-05-13T03:42:38.656Z,14.53
2023-05-13T03:45:40.845Z,16.90
2023-05-13T03:48:43.527Z,9.00
2023-05-13T03:51:45.632Z,6.97
2023-05-13T03:54:47.862Z,10.57
2023-05-13T03:57:50.109Z,14.60
2023-05-13T04:00:52.189Z,9.93
2023-05-13T04:03:54.267Z,11.57
2023-05-13T04:06:56.405Z,13.00
2023-05-13T04:09:58.426Z,13.30
2023-05-13T04:13:00.628Z,15.37
2023-05-13T04:16:12.832Z,9.37
2023-05-13T04:19:14.958Z,13.17
2023-05-13T04:22:16.993Z,14.50
2023-05-13T04:25:19.106Z,9.70
2023-05-13T04:28:21.260Z,14.23
2023-05-13T04:31:23.607Z,9.20
2023-05-13T04:34:26.116Z,14.77
2023-05-13T04:37:28.254Z,11.97
2023-05-13T04:40:30.835Z,6.20
2023-05-13T04:43:32.972Z,12.30
2023-05-13T04:46:37.656Z,15.43
2023-05-13T04:49:39.961Z,14.18
2023-05-13T04:52:46.526Z,16.23
2023-05-13T04:55:57.258Z,11.10
2023-05-13T04:58:59.528Z,11.87
2023-05-13T05:02:01.829Z,9.77
2023-05-13T05:05:04.404Z,15.30
2023-05-13T05:08:06.683Z,11.60
2023-05-13T05:11:10.028Z,14.57
2023-05-13T05:14:12.281Z,14.70
2023-05-13T05:17:14.390Z,12.30
2023-05-13T05:20:16.757Z,17.03
2023-05-13T05:23:18.884Z,15.10
2023-05-13T05:26:22.498Z,15.57
2023-05-13T05:29:24.596Z,11.20
2023-05-13T05:32:27.185Z,17.13
2023-05-13T05:35:29.368Z,11.23
2023-05-13T05:38:31.562Z,14.27
2023-05-13T05:41:33.853Z,14.13
2023-05-13T05:44:36.298Z,8.83
2023-05-13T05:47:38.647Z,17.90
2023-05-13T05:50:41.710Z,18.10
2023-05-13T05:53:43.788Z,16.73
2023-05-13T05:56:46.079Z,16.23
2023-05-13T05:59:48.261Z,11.30
2023-05-13T06:02:51.200Z,7.87
2023-05-13T06:05:54.171Z,9.87
2023-05-13T06:08:56.349Z,16.75
2023-05-13T06:11:58.393Z,9.35
2023-05-13T06:15:01.915Z,12.63
2023-05-13T06:18:05.704Z,8.68
2023-05-13T06:21:08.033Z,7.13
2023-05-13T06:24:10.417Z,6.35
2023-05-13T06:27:12.510Z,10.27
2023-05-13T06:30:14.641Z,9.77
2023-05-13T06:33:16.830Z,8.40
2023-05-13T06:36:18.877Z,7.35
2023-05-13T06:39:21.221Z,7.25
2023-05-13T06:42:23.601Z,9.43
2023-05-13T06:45:26.382Z,12.18
2023-05-13T06:48:28.409Z,3.92
2023-05-13T06:51:32.859Z,7.38
2023-05-13T06:54:35.061Z,8.82
2023-05-13T06:57:43.117Z,8.55
2023-05-13T07:00:47.444Z,6.57
2023-05-13T07:03:49.665Z,9.23
2023-05-13T07:06:52.079Z,7.28
2023-05-13T07:09:54.191Z,10.30
2023-05-13T07:12:56.607Z,9.60
2023-05-13T07:15:58.725Z,11.15
2023-05-13T07:19:01.035Z,4.57
2023-05-13T07:22:03.264Z,7.32
2023-05-13T07:25:06.210Z,5.72
2023-05-13T07:28:08.437Z,8.32
2023-05-13T07:31:12.608Z,11.02
2023-05-13T07:34:14.991Z,3.83
2023-05-13T07:37:17.352Z,8.00
2023-05-13T07:40:21.104Z,2.38
2023-05-13T07:46:30.939Z,2.47
2023-05-13T07:49:33.158Z,6.80
2023-05-13T07:52:35.579Z,8.27
2023-05-13T07:55:37.769Z,7.22
2023-05-13T07:58:40.003Z,2.33
2023-05-13T08:01:43.302Z,1.73
2023-05-13T08:04:45.663Z,4.13
2023-05-13T08:07:48.007Z,4.38
2023-05-13T08:10:50.259Z,3.15
2023-05-13T08:13:52.486Z,3.97
2023-05-13T08:16:55.013Z,4.72
2023-05-13T08:19:57.178Z,7.22
2023-05-13T08:22:59.414Z,3.60
2023-05-13T08:26:03.143Z,2.88
2023-05-13T08:29:05.479Z,4.43
2023-05-13T08:32:07.696Z,2.72
2023-05-13T08:35:10.151Z,4.05
2023-05-13T08:38:12.312Z,4.47
2023-05-13T08:41:16.535Z,4.00
2023-05-13T08:44:20.882Z,1.83
2023-05-13T08:47:29.128Z,2.90
2023-05-13T08:50:31.677Z,6.63
2023-05-13T08:53:35.764Z,4.00
2023-05-13T08:56:37.938Z,1.45
2023-05-13T08:59:40.100Z,4.28
2023-05-13T09:02:44.291Z,2.47
2023-05-13T09:05:47.444Z,2.03
2023-05-13T09:08:49.527Z,2.60
2023-05-13T09:11:51.868Z,3.65
2023-05-13T09:14:53.949Z,3.75
2023-05-13T09:18:00.330Z,7.47
2023-05-13T09:21:25.168Z,5.82
2023-05-13T09:24:27.393Z,4.25
2023-05-13T09:27:49.752Z,8.02
2023-05-13T09:30:56.981Z,8.23
2023-05-13T09:33:59.225Z,2.92
2023-05-13T09:37:06.364Z,13.77
2023-05-13T09:40:12.846Z,14.50
2023-05-13T09:43:15.831Z,4.68
2023-05-13T09:46:18.221Z,10.18
2023-05-13T09:49:24.563Z,4.38
2023-05-13T09:52:26.731Z,2.15
2023-05-13T09:55:30.008Z,2.70
2023-05-13T09:58:32.165Z,3.83
2023-05-13T10:01:36.625Z,5.25
2023-05-13T10:04:39.541Z,2.28
2023-05-13T10:07:42.081Z,2.73
2023-05-13T10:10:46.332Z,6.93
2023-05-13T10:13:55.152Z,3.22
2023-05-13T10:16:59.325Z,3.97
2023-05-13T10:20:02.008Z,3.97
2023-05-13T10:23:04.845Z,6.47
2023-05-13T10:26:07.648Z,1.70
2023-05-13T10:29:11.375Z,3.60
2023-05-13T10:32:15.952Z,4.95
2023-05-13T10:35:21.828Z,5.45
2023-05-13T10:38:40.069Z,2.70
2023-05-13T10:42:39.663Z,2.65
2023-05-13T10:45:46.222Z,8.73
2023-05-13T10:48:58.369Z,3.25
2023-05-13T10:52:08.677Z,2.67
2023-05-13T10:55:18.132Z,6.60
2023-05-13T10:58:22.654Z,4.38
2023-05-13T11:01:43.314Z,4.13
2023-05-13T11:05:01.634Z,4.93
2023-05-13T11:08:05.194Z,4.10
2023-05-13T11:11:25.212Z,17.77
2023-05-13T11:14:30.296Z,2.17
2023-05-13T11:17:34.749Z,3.53
2023-05-13T11:20:51.461Z,2.10
2023-05-13T11:24:01.163Z,2.65
2023-05-13T11:27:19.273Z,2.15
2023-05-13T11:30:23.469Z,2.78
2023-05-13T11:34:04.607Z,1.30
2023-05-13T11:37:09.165Z,3.85
2023-05-13T11:40:12.172Z,4.68
2023-05-13T11:43:20.965Z,0.77
2023-05-13T11:46:24.586Z,2.92
2023-05-13T11:49:42.898Z,3.40
2023-05-13T11:52:45.735Z,1.90
2023-05-13T11:55:49.604Z,2.10
2023-05-13T11:58:53.393Z,6.03
2023-05-13T12:02:04.448Z,1.88
2023-05-13T12:05:08.675Z,4.53
2023-05-13T12:11:13.627Z,2.00
2023-05-13T12:14:16.986Z,0.75
2023-05-13T12:17:20.781Z,5.30
2023-05-13T12:20:25.377Z,2.95
2023-05-13T12:23:39.012Z,1.27
2023-05-13T12:26:41.273Z,0.73
2023-05-13T12:29:44.076Z,4.88
2023-05-13T12:32:47.379Z,2.70
2023-05-13T12:35:51.944Z,0.90
2023-05-13T12:39:02.308Z,3.63
2023-05-13T12:42:04.521Z,6.20
2023-05-13T12:45:07.314Z,3.97
2023-05-13T12:48:09.726Z,3.28
2023-05-13T12:51:12.183Z,2.88
2023-05-13T12:54:14.513Z,1.15
2023-05-13T12:57:18.340Z,4.97
2023-05-13T13:00:20.675Z,0.98
2023-05-13T13:03:24.617Z,4.07
2023-05-13T13:06:27.138Z,4.47
2023-05-13T13:09:29.452Z,3.90
2023-05-13T13:12:31.706Z,4.05
2023-05-13T13:15:33.897Z,2.42
2023-05-13T13:18:36.270Z,1.48
2023-05-13T13:21:38.637Z,5.78
2023-05-13T13:24:41.149Z,2.08
2023-05-13T13:27:43.848Z,0.63
2023-05-13T13:30:47.356Z,2.67
2023-05-13T13:33:49.646Z,4.53
2023-05-13T13:36:51.717Z,4.38
2023-05-13T13:39:53.756Z,5.25
2023-05-13T13:42:55.940Z,3.20
2023-05-13T13:45:58.317Z,2.55
2023-05-13T13:49:02.148Z,1.75
2023-05-13T13:52:06.214Z,3.65
2023-05-13T13:55:08.900Z,4.25
2023-05-13T13:58:13.334Z,1.13
2023-05-13T14:01:15.820Z,2.15
2023-05-13T14:04:24.001Z,4.07
2023-05-13T14:07:26.351Z,2.42
2023-05-13T14:10:28.619Z,5.50
2023-05-13T14:13:30.863Z,10.35
2023-05-13T14:16:33.146Z,4.05
2023-05-13T14:19:35.332Z,0.90
2023-05-13T14:22:37.853Z,2.08
2023-05-13T14:25:39.942Z,5.40
2023-05-13T14:28:42.928Z,4.80
2023-05-13T14:31:45.119Z,2.38
2023-05-13T14:34:47.615Z,7.03
2023-05-13T14:37:50.322Z,7.55
2023-05-13T14:40:58.883Z,2.95
2023-05-13T14:44:01.645Z,14.13
2023-05-13T14:47:04.196Z,4.00
2023-05-13T14:50:07.105Z,4.40
2023-05-13T14:53:09.298Z,3.10
2023-05-13T14:56:11.745Z,9.95
2023-05-13T14:59:13.956Z,1.25
2023-05-13T15:02:17.496Z,1.77
2023-05-13T15:05:20.097Z,2.30
2023-05-13T15:08:22.516Z,5.00
2023-05-13T15:11:26.992Z,4.07
2023-05-13T15:14:29.348Z,1.17
2023-05-13T15:17:31.467Z,3.78
2023-05-13T15:20:33.687Z,8.38
2023-05-13T15:23:35.920Z,1.38
2023-05-13T15:26:38.134Z,7.07
2023-05-13T15:29:40.327Z,3.05
2023-05-13T15:32:42.479Z,11.38
2023-05-13T15:35:44.913Z,5.35
2023-05-13T15:38:47.276Z,5.00
2023-05-13T15:41:49.514Z,11.55
2023-05-13T15:44:51.604Z,2.38
2023-05-13T15:47:53.920Z,6.20
2023-05-13T15:50:56.026Z,2.47
2023-05-13T15:53:58.276Z,3.35
2023-05-13T15:57:00.514Z,4.70
2023-05-13T16:00:02.750Z,6.70
2023-05-13T16:03:04.965Z,1.65
2023-05-13T16:06:07.371Z,7.43
2023-05-13T16:09:11.015Z,5.55
2023-05-13T16:12:13.143Z,1.42
2023-05-13T16:15:15.162Z,6.25
2023-05-13T16:18:20.221Z,1.33
2023-05-13T16:21:23.209Z,4.05
2023-05-13T16:24:42.390Z,3.85
2023-05-13T16:27:44.511Z,1.48
2023-05-13T16:30:48.421Z,6.45
2023-05-13T16:33:52.852Z,8.43
2023-05-13T16:36:57.241Z,4.38
2023-05-13T16:40:01.008Z,5.95
2023-05-13T16:43:06.077Z,4.88
2023-05-13T16:46:08.139Z,2.20
2023-05-13T16:49:10.635Z,5.10
2023-05-13T16:52:14.708Z,1.30
2023-05-13T16:55:16.943Z,3.53
2023-05-13T16:58:20.040Z,6.13
2023-05-13T17:01:22.244Z,1.63
2023-05-13T17:04:26.731Z,2.13
2023-05-13T17:07:29.320Z,3.35
2023-05-13T17:10:33.660Z,4.03
2023-05-13T17:13:35.775Z,5.43
2023-05-13T17:16:39.361Z,0.55
2023-05-13T17:19:42.346Z,1.17
2023-05-13T17:22:47.548Z,4.53
2023-05-13T17:25:49.967Z,2.22
2023-05-13T17:28:53.142Z,4.45
2023-05-13T17:31:55.692Z,2.77
2023-05-13T17:35:00.525Z,5.65
2023-05-13T17:38:03.729Z,2.95
2023-05-13T17:41:09.268Z,4.78
2023-05-13T17:44:12.797Z,7.00
2023-05-13T17:47:14.907Z,3.08
2023-05-13T17:50:18.391Z,2.20
2023-05-13T17:53:21.404Z,4.35
2023-05-13T17:56:26.486Z,2.15
2023-05-13T17:59:34.054Z,5.50
2023-05-13T18:02:36.448Z,5.57
2023-05-13T18:05:38.655Z,4.80
2023-05-13T18:08:40.966Z,2.97
2023-05-13T18:11:43.207Z,3.55
2023-05-13T18:14:45.447Z,1.75
2023-05-13T18:17:47.861Z,4.18
2023-05-13T18:20:51.065Z,5.88
2023-05-13T18:23:55.182Z,2.97
2023-05-13T18:29:59.656Z,6.95
2023-05-13T18:33:04.105Z,6.97
2023-05-13T18:36:08.388Z,3.25
2023-05-13T18:39:11.663Z,6.82
2023-05-13T18:42:14.886Z,4.45
2023-05-13T18:45:17.205Z,5.00
2023-05-13T18:48:19.416Z,5.38
2023-05-13T18:51:21.609Z,4.88
2023-05-13T18:54:25.768Z,3.95
2023-05-13T18:57:27.849Z,3.08
2023-05-13T19:00:29.984Z,4.28
2023-05-13T19:03:32.222Z,6.82
2023-05-13T19:06:38.120Z,10.07
2023-05-13T19:09:40.586Z,4.82
2023-05-13T19:12:43.139Z,4.18
2023-05-13T19:15:46.613Z,6.90
2023-05-13T19:21:53.960Z,4.05
2023-05-13T19:24:57.272Z,4.97
2023-05-13T19:27:59.326Z,2.78
2023-05-13T19:31:01.436Z,4.63
2023-05-13T19:34:03.493Z,8.13
2023-05-13T19:37:06.492Z,9.80
2023-05-13T19:40:10.538Z,8.50
2023-05-13T19:43:12.555Z,7.55
2023-05-13T19:46:14.748Z,8.90
2023-05-13T19:49:17.061Z,5.63
2023-05-13T19:52:19.433Z,5.63
2023-05-13T19:55:22.608Z,7.30
2023-05-13T19:58:24.840Z,8.98
2023-05-13T20:01:26.972Z,7.75
2023-05-13T20:04:29.438Z,7.93
2023-05-13T20:07:31.485Z,8.00
2023-05-13T20:10:37.731Z,8.32
2023-05-13T20:13:44.188Z,10.93
2023-05-13T20:16:46.552Z,10.13
2023-05-13T20:19:49.755Z,3.35
2023-05-13T20:22:52.797Z,9.77
2023-05-13T20:25:56.923Z,5.93
2023-05-13T20:28:59.190Z,5.53
2023-05-13T20:32:01.544Z,6.70
2023-05-13T20:35:04.170Z,8.88
2023-05-13T20:38:07.023Z,7.57
2023-05-13T20:41:10.614Z,7.95
2023-05-13T20:44:15.849Z,10.98
2023-05-13T20:47:18.622Z,9.20
2023-05-13T20:50:20.846Z,6.05
2023-05-13T20:53:23.266Z,11.00
2023-05-13T20:56:25.805Z,12.23
2023-05-13T20:59:28.194Z,11.15
2023-05-13T21:02:30.366Z,11.57
2023-05-13T21:05:32.524Z,10.60
2023-05-13T21:08:37.002Z,8.30
2023-05-13T21:14:41.385Z,11.13
2023-05-13T21:17:44.507Z,7.85
2023-05-13T21:20:46.702Z,7.35
2023-05-13T21:23:50.012Z,9.10
2023-05-13T21:26:52.384Z,7.70
2023-05-13T21:29:54.821Z,13.73
2023-05-13T21:32:57.080Z,23.90
2023-05-13T21:35:59.592Z,8.30
2023-05-13T21:39:01.946Z,9.93
2023-05-13T21:42:07.534Z,13.85
2023-05-13T21:45:10.251Z,9.95
2023-05-13T21:48:12.524Z,8.77
2023-05-13T21:51:14.897Z,9.27
2023-05-13T21:54:18.523Z,17.92
2023-05-13T21:57:21.604Z,16.95
2023-05-13T22:00:24.892Z,12.73
2023-05-13T22:03:27.648Z,13.85
2023-05-13T22:06:30.006Z,10.48
2023-05-13T22:09:32.247Z,25.63
2023-05-13T22:12:34.329Z,12.35
2023-05-13T22:15:36.578Z,22.90
2023-05-13T22:18:39.364Z,21.90
2023-05-13T22:21:41.828Z,19.13
2023-05-13T22:24:43.844Z,15.52
2023-05-13T22:27:48.492Z,11.27
2023-05-13T22:30:53.769Z,13.40
2023-05-13T22:33:56.108Z,17.85
2023-05-13T22:36:58.158Z,14.68
2023-05-13T22:40:00.258Z,24.55
2023-05-13T22:43:03.198Z,13.95
2023-05-13T22:46:05.319Z,12.70
2023-05-13T22:49:07.518Z,8.82
2023-05-13T22:52:09.583Z,17.55
2023-05-13T22:55:11.668Z,10.10
2023-05-13T22:58:13.710Z,20.05
2023-05-13T23:01:15.986Z,10.30
2023-05-13T23:04:18.161Z,13.20
2023-05-13T23:07:20.655Z,18.85
2023-05-13T23:10:23.124Z,26.35
2023-05-13T23:13:25.720Z,11.50
2023-05-13T23:16:27.918Z,12.07
2023-05-13T23:19:30.192Z,16.65
2023-05-13T23:22:32.194Z,16.38
2023-05-13T23:25:34.497Z,19.60
2023-05-13T23:28:36.695Z,16.83
2023-05-13T23:31:40.697Z,10.48
2023-05-13T23:34:42.822Z,17.02
2023-05-13T23:37:45.028Z,16.33
2023-05-13T23:40:47.583Z,19.55
2023-05-13T23:43:49.734Z,10.20
2023-05-13T23:46:51.870Z,15.85
2023-05-13T23:49:54.076Z,9.65
2023-05-13T23:52:56.084Z,15.52
2023-05-13T23:55:58.370Z,15.27
2023-05-13T23:59:00.504Z,19.33
